createdAt,value
2017-12-26T00:01:56.275Z,0.70
2017-12-26T00:04:23.884Z,0.70
2017-12-26T00:06:51.363Z,0.60
2017-12-26T00:09:18.924Z,0.60
2017-12-26T00:11:46.463Z,0.60
2017-12-26T00:14:13.907Z,0.70
2017-12-26T00:16:41.426Z,0.70
2017-12-26T00:19:08.851Z,0.70
2017-12-26T00:21:36.390Z,0.70
2017-12-26T00:24:04.695Z,0.80
2017-12-26T00:26:32.174Z,0.80
2017-12-26T00:28:59.608Z,0.80
2017-12-26T00:31:27.072Z,0.70
2017-12-26T00:33:54.523Z,0.70
2017-12-26T00:36:21.969Z,0.80
2017-12-26T00:38:49.472Z,0.80
2017-12-26T00:41:16.911Z,0.80
2017-12-26T00:43:44.443Z,0.60
2017-12-26T00:46:12.016Z,0.60
2017-12-26T00:48:40.264Z,0.60
2017-12-26T00:51:07.810Z,0.60
2017-12-26T00:53:35.256Z,0.60
2017-12-26T00:56:02.721Z,0.50
2017-12-26T00:58:30.924Z,0.40
2017-12-26T01:00:58.364Z,0.40
2017-12-26T01:03:25.805Z,0.10
2017-12-26T01:05:53.264Z,0.10
2017-12-26T01:08:20.728Z,0.10
2017-12-26T01:10:48.172Z,0.20
2017-12-26T01:13:15.706Z,0.30
2017-12-26T01:15:43.135Z,0.40
2017-12-26T01:18:10.596Z,0.40
2017-12-26T01:20:38.028Z,0.40
2017-12-26T01:23:05.477Z,0.40
2017-12-26T01:25:32.996Z,0.30
2017-12-26T01:28:00.421Z,0.10
2017-12-26T01:30:27.897Z,0.00
2017-12-26T01:32:55.344Z,0.10
2017-12-26T01:35:22.784Z,0.10
2017-12-26T01:37:50.236Z,0.20
2017-12-26T01:40:17.689Z,0.30
2017-12-26T01:42:45.216Z,0.30
2017-12-26T01:45:12.692Z,0.30
2017-12-26T01:47:40.932Z,0.10
2017-12-26T01:50:08.365Z,0.10
2017-12-26T01:52:35.820Z,0.10
2017-12-26T01:55:03.276Z,0.20
2017-12-26T01:57:31.472Z,0.30
2017-12-26T01:59:58.937Z,0.30
2017-12-26T02:02:26.369Z,0.30
2017-12-26T02:04:53.821Z,0.30
2017-12-26T02:07:21.307Z,0.30
2017-12-26T02:09:49.555Z,0.30
2017-12-26T02:12:17.094Z,0.30
2017-12-26T02:14:44.589Z,0.20
2017-12-26T02:17:12.096Z,0.10
2017-12-26T02:19:39.636Z,0.10
2017-12-26T02:22:07.172Z,0.10
2017-12-26T02:24:34.607Z,0.10
2017-12-26T02:27:02.141Z,0.00
2017-12-26T02:29:30.139Z,0.00
2017-12-26T02:31:58.432Z,0.20
2017-12-26T02:34:25.872Z,0.10
2017-12-26T02:36:53.472Z,0.20
2017-12-26T02:39:20.896Z,0.00
2017-12-26T02:41:48.366Z,-0.10
2017-12-26T02:44:15.913Z,-0.10
2017-12-26T02:46:44.121Z,-0.10
2017-12-26T02:49:11.575Z,-0.10
2017-12-26T02:51:39.034Z,-0.10
2017-12-26T02:54:06.480Z,-0.20
2017-12-26T02:56:33.923Z,-0.20
2017-12-26T02:59:02.188Z,-0.20
2017-12-26T03:01:29.627Z,-0.20
2017-12-26T03:03:57.083Z,-0.20
2017-12-26T03:06:24.512Z,-0.10
2017-12-26T03:08:51.964Z,-0.10
2017-12-26T03:11:19.472Z,0.00
2017-12-26T03:13:46.896Z,0.00
2017-12-26T03:16:14.335Z,0.00
2017-12-26T03:18:41.849Z,-0.20
2017-12-26T03:21:10.108Z,-0.20
2017-12-26T03:23:38.368Z,-0.10
2017-12-26T03:26:05.905Z,-0.10
2017-12-26T03:28:33.338Z,-0.10
2017-12-26T03:31:00.884Z,-0.10
2017-12-26T03:33:28.323Z,-0.10
2017-12-26T03:35:55.776Z,-0.10
2017-12-26T03:38:23.211Z,0.00
2017-12-26T03:40:50.695Z,0.00
2017-12-26T03:43:18.894Z,0.10
2017-12-26T03:45:46.333Z,0.10
2017-12-26T03:48:13.788Z,0.10
2017-12-26T03:50:41.225Z,0.10
2017-12-26T03:53:08.692Z,0.10
2017-12-26T03:55:36.127Z,0.10
2017-12-26T03:58:03.567Z,0.10
2017-12-26T04:00:31.005Z,0.00
2017-12-26T04:02:58.454Z,0.00
2017-12-26T04:05:25.896Z,0.00
2017-12-26T04:07:53.388Z,-0.10
2017-12-26T04:10:20.832Z,-0.10
2017-12-26T04:12:48.272Z,-0.20
2017-12-26T04:15:15.748Z,-0.30
2017-12-26T04:17:43.216Z,-0.30
2017-12-26T04:20:10.665Z,-0.30
2017-12-26T04:22:38.104Z,-0.30
2017-12-26T04:25:05.576Z,-0.40
2017-12-26T04:27:33.787Z,-0.40
2017-12-26T04:30:01.266Z,-0.40
2017-12-26T04:32:28.696Z,-0.50
2017-12-26T04:34:56.243Z,-0.50
2017-12-26T04:37:23.701Z,-0.40
2017-12-26T04:39:51.943Z,-0.40
2017-12-26T04:42:19.479Z,-0.40
2017-12-26T04:44:46.944Z,-0.50
2017-12-26T04:47:15.237Z,-0.30
2017-12-26T04:49:42.673Z,-0.30
2017-12-26T04:52:10.172Z,-0.30
2017-12-26T04:54:37.627Z,-0.40
2017-12-26T04:57:05.068Z,-0.30
2017-12-26T04:59:32.508Z,-0.20
2017-12-26T05:01:59.957Z,-0.10
2017-12-26T05:04:27.383Z,0.00
2017-12-26T05:06:54.836Z,0.00
2017-12-26T05:09:22.275Z,0.10
2017-12-26T05:11:49.696Z,0.20
2017-12-26T05:14:17.133Z,0.20
2017-12-26T05:16:44.598Z,0.20
2017-12-26T05:19:12.020Z,0.20
2017-12-26T05:21:39.464Z,0.10
2017-12-26T05:24:06.897Z,0.10
2017-12-26T05:26:34.364Z,0.10
2017-12-26T05:29:01.818Z,0.00
2017-12-26T05:31:29.471Z,0.10
2017-12-26T05:33:56.908Z,0.20
2017-12-26T05:36:24.344Z,0.20
2017-12-26T05:38:51.785Z,0.30
2017-12-26T05:41:19.215Z,0.30
2017-12-26T05:43:46.676Z,0.40
2017-12-26T05:46:14.113Z,0.50
2017-12-26T05:48:41.578Z,0.50
2017-12-26T05:51:09.772Z,0.50
2017-12-26T05:53:37.264Z,0.50
2017-12-26T05:56:04.940Z,0.40
2017-12-26T05:58:32.391Z,0.10
2017-12-26T06:01:00.577Z,0.10
2017-12-26T06:03:28.052Z,0.10
2017-12-26T06:05:55.504Z,0.20
2017-12-26T06:08:22.975Z,0.30
2017-12-26T06:10:50.480Z,0.20
2017-12-26T06:13:17.935Z,0.20
2017-12-26T06:15:45.380Z,0.10
2017-12-26T06:18:13.755Z,0.00
2017-12-26T06:20:41.191Z,-0.20
2017-12-26T06:23:08.652Z,-0.10
2017-12-26T06:25:36.890Z,-0.30
2017-12-26T06:28:04.322Z,-0.30
2017-12-26T06:30:31.881Z,-0.40
2017-12-26T06:32:59.315Z,-0.30
2017-12-26T06:35:26.796Z,-0.30
2017-12-26T06:37:54.328Z,-0.20
2017-12-26T06:40:22.517Z,-0.20
2017-12-26T06:42:49.951Z,-0.20
2017-12-26T06:45:17.407Z,-0.20
2017-12-26T06:47:44.905Z,-0.10
2017-12-26T06:50:12.328Z,0.00
2017-12-26T06:52:39.880Z,-0.30
2017-12-26T06:55:07.328Z,-0.30
2017-12-26T06:57:34.783Z,-0.20
2017-12-26T07:00:02.216Z,-0.20
2017-12-26T07:02:29.749Z,-0.40
2017-12-26T07:04:57.296Z,-0.40
2017-12-26T07:07:24.839Z,-0.40
2017-12-26T07:09:52.281Z,-0.40
2017-12-26T07:12:19.730Z,-0.30
2017-12-26T07:14:47.176Z,-0.20
2017-12-26T07:17:14.600Z,-0.20
2017-12-26T07:19:42.944Z,-0.10
2017-12-26T07:22:15.990Z,-0.10
2017-12-26T07:24:43.509Z,-0.20
2017-12-26T07:27:10.953Z,-0.20
2017-12-26T07:29:38.396Z,-0.30
2017-12-26T07:32:06.668Z,-0.60
2017-12-26T07:34:34.864Z,-0.70
2017-12-26T07:37:02.295Z,-0.70
2017-12-26T07:39:30.311Z,-0.60
2017-12-26T07:41:57.856Z,-0.50
2017-12-26T07:44:25.292Z,-0.50
2017-12-26T07:46:52.752Z,-0.40
2017-12-26T07:49:20.964Z,-0.50
2017-12-26T07:51:48.400Z,-0.50
2017-12-26T07:54:15.843Z,-0.50
2017-12-26T07:56:43.288Z,-0.50
2017-12-26T07:59:10.751Z,-0.50
2017-12-26T08:01:38.208Z,-0.50
2017-12-26T08:04:05.651Z,-0.40
2017-12-26T08:06:33.118Z,-0.30
2017-12-26T08:09:01.300Z,-0.30
2017-12-26T08:11:28.821Z,-0.30
2017-12-26T08:13:57.024Z,-0.10
2017-12-26T08:16:24.462Z,-0.10
2017-12-26T08:18:51.934Z,0.00
2017-12-26T08:21:19.436Z,0.30
2017-12-26T08:23:46.870Z,0.50
2017-12-26T08:26:14.881Z,0.80
2017-12-26T08:28:42.318Z,1.00
2017-12-26T08:31:09.844Z,1.30
2017-12-26T08:33:37.268Z,1.50
2017-12-26T08:36:04.696Z,1.80
2017-12-26T08:38:32.128Z,2.20
2017-12-26T08:40:59.639Z,2.60
2017-12-26T08:43:27.189Z,2.90
2017-12-26T08:45:54.740Z,3.10
2017-12-26T08:48:22.188Z,3.20
2017-12-26T08:50:50.432Z,3.30
2017-12-26T08:53:17.918Z,3.30
2017-12-26T08:55:46.136Z,3.60
2017-12-26T08:58:13.593Z,3.60
2017-12-26T09:00:41.791Z,4.00
2017-12-26T09:03:09.240Z,4.10
2017-12-26T09:05:36.693Z,4.20
2017-12-26T09:08:04.134Z,4.50
2017-12-26T09:10:31.573Z,4.70
2017-12-26T09:12:59.000Z,5.00
2017-12-26T09:15:26.435Z,5.20
2017-12-26T09:17:53.912Z,5.40
2017-12-26T09:20:21.304Z,5.50
2017-12-26T09:22:49.520Z,5.80
2017-12-26T09:25:16.988Z,5.70
2017-12-26T09:27:44.410Z,5.90
2017-12-26T09:30:11.937Z,6.00
2017-12-26T09:32:39.383Z,6.10
2017-12-26T09:35:06.826Z,6.10
2017-12-26T09:37:34.370Z,6.10
2017-12-26T09:40:01.802Z,6.20
2017-12-26T09:42:29.245Z,6.40
2017-12-26T09:44:56.674Z,6.60
2017-12-26T09:47:24.120Z,6.70
2017-12-26T09:49:51.570Z,6.80
2017-12-26T09:52:22.922Z,7.20
2017-12-26T09:54:51.372Z,7.60
2017-12-26T09:57:18.791Z,7.60
2017-12-26T09:59:46.252Z,8.00
2017-12-26T10:02:13.692Z,8.20
2017-12-26T10:04:41.141Z,8.50
2017-12-26T10:07:08.568Z,8.80
2017-12-26T10:09:36.008Z,9.00
2017-12-26T10:12:04.372Z,9.10
2017-12-26T10:14:31.799Z,9.20
2017-12-26T10:16:59.328Z,9.10
2017-12-26T10:19:26.764Z,9.20
2017-12-26T10:21:54.208Z,9.30
2017-12-26T10:24:21.660Z,9.40
2017-12-26T10:26:49.865Z,9.50
2017-12-26T10:29:17.358Z,9.50
2017-12-26T10:31:45.564Z,9.70
2017-12-26T10:34:13.002Z,9.70
2017-12-26T10:36:40.473Z,9.70
2017-12-26T10:39:07.914Z,9.60
2017-12-26T10:41:35.383Z,9.70
2017-12-26T10:44:03.019Z,9.70
2017-12-26T10:46:30.459Z,9.60
2017-12-26T10:48:57.898Z,9.50
2017-12-26T10:51:25.342Z,9.50
2017-12-26T10:53:52.903Z,9.50
2017-12-26T10:56:20.351Z,9.40
2017-12-26T10:58:48.561Z,9.40
2017-12-26T11:01:16.017Z,9.30
2017-12-26T11:03:43.454Z,9.40
2017-12-26T11:06:10.906Z,9.40
2017-12-26T11:08:38.341Z,9.30
2017-12-26T11:11:05.808Z,9.20
2017-12-26T11:13:33.251Z,9.20
2017-12-26T11:16:00.736Z,9.10
2017-12-26T11:18:28.166Z,9.10
2017-12-26T11:20:56.466Z,9.10
2017-12-26T11:23:23.905Z,9.10
2017-12-26T11:25:51.388Z,9.00
2017-12-26T11:28:18.827Z,9.10
2017-12-26T11:30:46.265Z,9.10
2017-12-26T11:33:13.716Z,9.10
2017-12-26T11:35:41.167Z,9.20
2017-12-26T11:38:09.607Z,9.20
2017-12-26T11:40:37.036Z,9.20
2017-12-26T11:43:04.481Z,9.20
2017-12-26T11:45:31.917Z,9.30
2017-12-26T11:47:59.406Z,9.30
2017-12-26T11:50:26.865Z,9.30
2017-12-26T11:52:55.087Z,9.40
2017-12-26T11:55:22.547Z,9.30
2017-12-26T11:57:49.984Z,9.40
2017-12-26T12:00:17.510Z,9.50
2017-12-26T12:02:44.949Z,9.50
2017-12-26T12:05:12.472Z,9.50
2017-12-26T12:07:40.169Z,9.60
2017-12-26T12:10:07.604Z,9.60
2017-12-26T12:12:35.069Z,9.70
2017-12-26T12:15:03.327Z,9.70
2017-12-26T12:17:30.758Z,9.70
2017-12-26T12:19:58.233Z,9.70
2017-12-26T12:22:25.678Z,9.70
2017-12-26T12:24:53.122Z,9.80
2017-12-26T12:27:20.617Z,9.70
2017-12-26T12:29:48.075Z,9.60
2017-12-26T12:32:15.505Z,9.60
2017-12-26T12:34:42.969Z,9.50
2017-12-26T12:37:10.421Z,9.50
2017-12-26T12:39:38.668Z,9.40
2017-12-26T12:42:06.117Z,9.40
2017-12-26T12:44:33.647Z,9.30
2017-12-26T12:47:01.089Z,9.20
2017-12-26T12:49:30.590Z,9.10
2017-12-26T12:51:58.133Z,9.00
2017-12-26T12:54:25.672Z,9.00
2017-12-26T12:56:53.120Z,9.00
2017-12-26T12:59:20.554Z,9.10
2017-12-26T13:01:48.010Z,9.00
2017-12-26T13:04:15.546Z,9.00
2017-12-26T13:06:42.989Z,9.00
2017-12-26T13:09:10.533Z,8.90
2017-12-26T13:11:37.989Z,8.90
2017-12-26T13:14:05.425Z,9.00
2017-12-26T13:16:33.689Z,9.00
2017-12-26T13:19:01.161Z,9.00
2017-12-26T13:21:28.708Z,9.00
2017-12-26T13:23:56.189Z,8.90
2017-12-26T13:26:23.633Z,8.90
2017-12-26T13:28:51.085Z,8.90
2017-12-26T13:31:18.525Z,8.90
2017-12-26T13:33:46.095Z,8.80
2017-12-26T13:36:13.525Z,8.70
2017-12-26T13:38:41.000Z,8.70
2017-12-26T13:41:08.472Z,8.60
2017-12-26T13:43:35.904Z,8.60
2017-12-26T13:46:03.351Z,8.60
2017-12-26T13:48:30.840Z,8.50
2017-12-26T13:50:58.293Z,8.50
2017-12-26T13:53:25.739Z,8.50
2017-12-26T13:55:53.364Z,8.50
2017-12-26T13:58:20.834Z,8.40
2017-12-26T14:00:48.269Z,8.40
2017-12-26T14:03:15.712Z,8.40
2017-12-26T14:05:43.253Z,8.40
2017-12-26T14:08:10.694Z,8.40
2017-12-26T14:10:38.232Z,8.40
2017-12-26T14:13:05.672Z,8.30
2017-12-26T14:15:33.150Z,8.30
2017-12-26T14:18:00.639Z,8.30
2017-12-26T14:20:28.200Z,8.30
2017-12-26T14:22:55.660Z,8.30
2017-12-26T14:25:23.198Z,8.20
2017-12-26T14:27:50.624Z,8.20
2017-12-26T14:30:18.073Z,8.10
2017-12-26T14:32:45.688Z,8.10
2017-12-26T14:35:13.138Z,8.10
2017-12-26T14:37:41.583Z,8.00
2017-12-26T14:40:09.070Z,8.00
2017-12-26T14:42:36.507Z,8.00
2017-12-26T14:45:03.938Z,8.00
2017-12-26T14:47:31.372Z,7.90
2017-12-26T14:49:58.795Z,7.90
2017-12-26T14:52:26.292Z,7.90
2017-12-26T14:54:53.760Z,7.80
2017-12-26T14:57:21.948Z,7.80
2017-12-26T14:59:49.385Z,7.70
2017-12-26T15:02:16.815Z,7.70
2017-12-26T15:04:44.253Z,7.70
2017-12-26T15:07:12.452Z,7.60
2017-12-26T15:09:39.897Z,7.60
2017-12-26T15:12:07.342Z,7.60
2017-12-26T15:14:34.769Z,7.60
2017-12-26T15:17:02.202Z,7.50
2017-12-26T15:19:29.645Z,7.50
2017-12-26T15:21:57.078Z,7.50
2017-12-26T15:24:24.588Z,7.50
2017-12-26T15:26:52.013Z,7.40
2017-12-26T15:29:19.460Z,7.40
2017-12-26T15:31:46.926Z,7.40
2017-12-26T15:34:14.456Z,7.30
2017-12-26T15:36:41.876Z,7.30
2017-12-26T15:39:09.312Z,7.30
2017-12-26T15:41:36.756Z,7.30
2017-12-26T15:44:04.186Z,7.30
2017-12-26T15:46:31.684Z,7.30
2017-12-26T15:48:59.117Z,7.30
2017-12-26T15:51:26.556Z,7.20
2017-12-26T15:53:54.155Z,7.20
2017-12-26T15:56:21.609Z,7.20
2017-12-26T15:58:49.064Z,7.20
2017-12-26T16:01:16.545Z,7.20
2017-12-26T16:03:44.756Z,7.10
2017-12-26T16:06:12.248Z,7.10
2017-12-26T16:08:40.486Z,7.00
2017-12-26T16:11:07.990Z,7.00
2017-12-26T16:13:35.492Z,7.00
2017-12-26T16:16:02.929Z,7.00
2017-12-26T16:18:30.365Z,7.00
2017-12-26T16:20:57.820Z,7.00
2017-12-26T16:23:25.248Z,7.00
2017-12-26T16:25:52.678Z,6.90
2017-12-26T16:28:20.132Z,6.80
2017-12-26T16:30:47.626Z,6.90
2017-12-26T16:33:15.054Z,6.90
2017-12-26T16:35:43.256Z,6.90
2017-12-26T16:38:10.813Z,6.90
2017-12-26T16:40:38.248Z,6.80
2017-12-26T16:43:05.681Z,6.80
2017-12-26T16:45:33.116Z,6.80
2017-12-26T16:48:00.544Z,6.70
2017-12-26T16:50:27.988Z,6.80
2017-12-26T16:52:55.416Z,6.80
2017-12-26T16:55:22.939Z,6.80
2017-12-26T16:57:50.367Z,6.80
2017-12-26T17:00:17.866Z,6.80
2017-12-26T17:02:45.443Z,6.70
2017-12-26T17:05:12.918Z,6.70
2017-12-26T17:07:40.340Z,6.80
2017-12-26T17:10:07.768Z,6.70
2017-12-26T17:12:35.250Z,6.70
2017-12-26T17:15:02.718Z,6.70
2017-12-26T17:17:30.230Z,6.70
2017-12-26T17:19:57.711Z,6.70
2017-12-26T17:22:25.155Z,6.70
2017-12-26T17:24:52.592Z,6.70
2017-12-26T17:27:20.089Z,6.60
2017-12-26T17:29:47.524Z,6.60
2017-12-26T17:32:15.035Z,6.60
2017-12-26T17:34:42.565Z,6.50
2017-12-26T17:37:09.986Z,6.40
2017-12-26T17:39:37.427Z,6.50
2017-12-26T17:42:05.630Z,6.50
2017-12-26T17:44:33.069Z,6.50
2017-12-26T17:47:00.498Z,6.60
2017-12-26T17:49:28.750Z,6.60
2017-12-26T17:51:56.949Z,6.50
2017-12-26T17:54:24.411Z,6.50
2017-12-26T17:56:51.885Z,6.50
2017-12-26T17:59:20.116Z,6.50
2017-12-26T18:01:47.596Z,6.50
2017-12-26T18:04:15.846Z,6.50
2017-12-26T18:06:43.353Z,6.50
2017-12-26T18:09:10.841Z,6.60
2017-12-26T18:11:39.051Z,6.50
2017-12-26T18:14:06.510Z,6.50
2017-12-26T18:16:34.966Z,6.50
2017-12-26T18:19:02.394Z,6.50
2017-12-26T18:21:29.837Z,6.40
2017-12-26T18:23:57.427Z,6.40
2017-12-26T18:26:24.872Z,6.40
2017-12-26T18:31:19.802Z,6.30
2017-12-26T18:33:47.262Z,6.20
2017-12-26T18:36:14.733Z,6.30
2017-12-26T18:38:42.201Z,6.20
2017-12-26T18:41:10.454Z,6.10
2017-12-26T18:43:37.933Z,6.10
2017-12-26T18:46:05.421Z,6.00
2017-12-26T18:48:33.143Z,6.10
2017-12-26T18:51:00.645Z,6.20
2017-12-26T18:53:28.935Z,6.10
2017-12-26T18:55:56.380Z,6.10
2017-12-26T18:58:23.825Z,6.10
2017-12-26T19:00:51.388Z,6.00
2017-12-26T19:03:18.861Z,5.90
2017-12-26T19:05:46.391Z,5.90
2017-12-26T19:08:13.884Z,5.80
2017-12-26T19:10:42.684Z,5.90
2017-12-26T19:13:10.182Z,5.80
2017-12-26T19:15:38.422Z,5.80
2017-12-26T19:18:06.772Z,5.80
2017-12-26T19:20:35.096Z,5.70
2017-12-26T19:23:02.595Z,5.60
2017-12-26T19:25:30.074Z,5.50
2017-12-26T19:27:58.337Z,5.30
2017-12-26T19:30:26.570Z,5.30
2017-12-26T19:32:55.945Z,5.30
2017-12-26T19:35:24.224Z,5.20
2017-12-26T19:37:51.701Z,5.20
2017-12-26T19:40:19.129Z,5.20
2017-12-26T19:42:46.572Z,5.20
2017-12-26T19:45:14.019Z,5.20
2017-12-26T19:47:41.456Z,5.20
2017-12-26T19:50:08.941Z,5.20
2017-12-26T19:52:36.392Z,5.20
2017-12-26T19:55:03.871Z,5.10
2017-12-26T19:57:31.355Z,5.10
2017-12-26T19:59:58.874Z,5.10
2017-12-26T20:02:26.308Z,5.10
2017-12-26T20:04:53.843Z,5.10
2017-12-26T20:07:22.103Z,5.00
2017-12-26T20:09:49.601Z,5.00
2017-12-26T20:12:17.105Z,5.00
2017-12-26T20:14:44.614Z,5.00
2017-12-26T20:17:12.111Z,4.90
2017-12-26T21:41:36.639Z,4.70
2017-12-26T21:44:04.875Z,3.20
2017-12-26T21:46:32.443Z,3.20
2017-12-26T21:49:00.687Z,3.40
2017-12-26T21:51:28.172Z,3.40
2017-12-26T21:53:55.654Z,3.50
2017-12-26T21:56:23.947Z,3.60
2017-12-26T21:58:51.500Z,3.60
2017-12-26T22:01:19.740Z,3.70
2017-12-26T22:03:47.202Z,3.70
2017-12-26T22:06:14.676Z,3.70
2017-12-26T22:08:42.232Z,3.80
2017-12-26T22:11:09.733Z,3.80
2017-12-26T22:13:37.991Z,3.70
2017-12-26T22:16:06.240Z,3.60
2017-12-26T22:18:33.730Z,3.50
2017-12-26T22:21:01.214Z,3.50
2017-12-26T22:23:28.771Z,3.40
2017-12-26T22:25:56.294Z,3.30
2017-12-26T22:28:24.660Z,3.20
2017-12-26T22:30:52.125Z,3.20
2017-12-26T22:33:19.767Z,3.10
2017-12-26T22:35:47.259Z,3.10
2017-12-26T22:38:14.749Z,3.10
2017-12-26T22:40:42.214Z,3.00
2017-12-26T22:43:09.686Z,2.90
2017-12-26T22:45:37.210Z,2.90
2017-12-26T22:48:05.454Z,2.90
2017-12-26T22:50:32.963Z,2.80
2017-12-26T22:53:00.465Z,2.90
2017-12-26T22:55:28.826Z,2.80
2017-12-26T22:57:57.058Z,2.90
2017-12-26T23:00:24.538Z,2.90
2017-12-26T23:02:52.035Z,2.90
2017-12-26T23:05:19.504Z,2.90
2017-12-26T23:07:47.762Z,3.00
2017-12-26T23:10:15.288Z,3.00
2017-12-26T23:12:42.778Z,3.00
2017-12-26T23:15:16.843Z,3.00
2017-12-26T23:17:50.813Z,2.90
2017-12-26T23:20:24.083Z,2.90
2017-12-26T23:22:57.290Z,2.90
2017-12-26T23:25:30.546Z,3.00
2017-12-26T23:31:10.201Z,3.00
2017-12-26T23:36:54.102Z,3.00
2017-12-26T23:39:27.186Z,3.00
2017-12-26T23:42:00.493Z,2.90
2017-12-26T23:44:33.726Z,2.90
2017-12-26T23:47:06.800Z,2.80
2017-12-26T23:49:39.897Z,2.70
2017-12-26T23:52:12.999Z,2.60
2017-12-26T23:54:46.088Z,2.60
2017-12-26T23:57:19.295Z,2.50
